Time;durP1;ratioP1;P1;durP2;ratioP2;P2;SDS_P1;SDS_P2;PMS_P1;PMS_P2;Temp;Humidity;BMP_temperature;BMP_pressure;BME280_temperature;BME280_humidity;BME280_pressure;Samples;Min_cycle;Max_cycle;Signal;HPM_P1;HPM_P2
2023/01/18 00:00:31;;;;;;;26.77;10.68;;;11.80;99.90;;;;;;5027319;28;20049;-50
2023/01/18 00:02:57;;;;;;;18.23;6.65;;;11.80;99.90;;;;;;5009379;28;20040;-50
2023/01/18 00:05:24;;;;;;;17.25;7.40;;;11.90;99.90;;;;;;5029316;28;20025;-49
2023/01/18 00:07:53;;;;;;;20.70;8.63;;;11.90;99.90;;;;;;5037880;28;20547;-50
2023/01/18 00:10:19;;;;;;;12.13;3.25;;;11.90;99.90;;;;;;5037913;28;20060;-49
2023/01/18 00:12:45;;;;;;;4.75;1.85;;;11.80;99.90;;;;;;5047080;28;20047;-49
2023/01/18 00:15:11;;;;;;;16.83;5.22;;;11.60;99.90;;;;;;5043357;28;20021;-49
2023/01/18 00:17:46;;;;;;;9.80;3.33;;;11.50;99.90;;;;;;4970663;28;20044;-49
2023/01/18 00:20:13;;;;;;;1.02;0.70;;;11.40;99.90;;;;;;5046499;28;20197;-50
2023/01/18 00:22:39;;;;;;;0.47;0.47;;;11.30;99.90;;;;;;5050217;28;20552;-49
2023/01/18 00:25:05;;;;;;;0.50;0.50;;;11.20;99.90;;;;;;5052924;28;20034;-49
2023/01/18 00:27:30;;;;;;;1.05;0.20;;;11.20;99.90;;;;;;5037518;28;20356;-49
2023/01/18 00:29:58;;;;;;;0.80;0.60;;;11.20;99.90;;;;;;5052800;28;21528;-48
2023/01/18 00:32:24;;;;;;;4.78;1.67;;;11.30;99.90;;;;;;5043896;28;20049;-49
2023/01/18 00:34:50;;;;;;;1.52;0.60;;;11.30;99.90;;;;;;5050753;28;20029;-49
2023/01/18 00:37:15;;;;;;;1.58;0.88;;;11.30;99.90;;;;;;5053841;28;20060;-49
2023/01/18 00:39:41;;;;;;;1.30;0.85;;;11.40;99.90;;;;;;5047187;28;20063;-49
2023/01/18 00:44:51;;;;;;;19.25;9.77;;;11.30;99.90;;;;;;5043775;28;20052;-50
2023/01/18 00:47:17;;;;;;;2.03;0.90;;;11.50;99.90;;;;;;5051913;28;20025;-49
2023/01/18 00:49:43;;;;;;;0.63;0.47;;;11.40;99.90;;;;;;5036573;28;20047;-49
2023/01/18 00:52:09;;;;;;;3.90;1.77;;;11.40;99.90;;;;;;5050966;28;20040;-49
2023/01/18 00:54:35;;;;;;;19.13;9.25;;;11.40;99.90;;;;;;5054331;28;20049;-49
2023/01/18 00:57:00;;;;;;;3.53;1.50;;;11.40;99.90;;;;;;5049737;28;20532;-49
2023/01/18 00:59:26;;;;;;;0.40;0.40;;;11.40;99.90;;;;;;5043994;28;20083;-49
2023/01/18 01:01:52;;;;;;;1.33;0.82;;;11.40;99.90;;;;;;5030466;28;20373;-50
2023/01/18 01:07:02;;;;;;;1.20;0.70;;;11.40;99.90;;;;;;5049922;28;20036;-49
2023/01/18 01:09:29;;;;;;;2.35;1.20;;;11.50;99.90;;;;;;5044018;28;20022;-49
2023/01/18 01:26:07;;;;;;;3.83;1.75;;;11.60;99.90;;;;;;5051400;28;20044;-49
2023/01/18 01:28:36;;;;;;;10.13;5.60;;;;;;;;;;5053539;28;20086;-49
2023/01/18 01:31:04;;;;;;;38.25;17.90;;;11.70;99.90;;;;;;5052916;28;20028;-49
2023/01/18 01:33:31;;;;;;;28.52;12.73;;;11.70;99.90;;;;;;5048853;28;20094;-49
2023/01/18 01:35:59;;;;;;;4.82;2.42;;;11.80;99.90;;;;;;5042397;28;20540;-49
2023/01/18 01:38:25;;;;;;;11.20;6.50;;;11.70;99.90;;;;;;5050559;28;20036;-49
2023/01/18 01:40:58;;;;;;;47.38;24.77;;;11.80;99.90;;;;;;5048599;28;20029;-49
2023/01/18 01:43:42;;;;;;;25.67;11.65;;;11.90;99.90;;;;;;5041592;28;20025;-49
2023/01/18 01:46:36;;;;;;;17.98;8.48;;;11.90;99.90;;;;;;5053064;28;20029;-50
2023/01/18 01:49:12;;;;;;;32.30;17.20;;;11.90;99.90;;;;;;5049190;28;20079;-50
2023/01/18 01:51:42;;;;;;;4.43;1.92;;;11.90;99.90;;;;;;5049809;28;20454;-50
2023/01/18 01:54:13;;;;;;;3.47;1.85;;;11.60;99.90;;;;;;5048446;28;20045;-50
2023/01/18 01:56:40;;;;;;;13.82;7.85;;;11.60;99.90;;;;;;5044478;28;20421;-49
2023/01/18 01:59:08;;;;;;;17.17;9.55;;;11.70;99.90;;;;;;5049726;28;20025;-49
2023/01/18 02:01:35;;;;;;;7.15;3.42;;;11.70;99.90;;;;;;5050314;28;20500;-49
2023/01/18 02:04:02;;;;;;;3.63;2.00;;;11.60;99.90;;;;;;5050638;28;20033;-51
2023/01/18 02:06:35;;;;;;;3.58;1.75;;;11.40;99.90;;;;;;5048057;28;20017;-50
2023/01/18 02:09:05;;;;;;;2.83;1.73;;;11.30;99.90;;;;;;5045041;28;20037;-50
2023/01/18 02:11:31;;;;;;;1.48;1.08;;;11.20;99.90;;;;;;5049068;28;20402;-51
2023/01/18 02:14:02;;;;;;;2.33;1.40;;;11.10;99.90;;;;;;5054446;28;20036;-50
2023/01/18 02:16:49;;;;;;;3.55;1.40;;;11.10;99.90;;;;;;5053550;28;20029;-49
2023/01/18 02:20:01;;;;;;;1.77;0.80;;;11.10;99.90;;;;;;5043962;28;20028;-49
2023/01/18 02:23:10;;;;;;;0.45;0.40;;;11.10;99.90;;;;;;5049400;28;20060;-48
2023/01/18 02:26:12;;;;;;;0.60;0.52;;;11.00;99.90;;;;;;5042950;28;20044;-49
2023/01/18 02:28:40;;;;;;;1.95;1.23;;;11.00;99.90;;;;;;5050704;28;20082;-49
2023/01/18 02:31:16;;;;;;;1.98;1.23;;;11.20;99.90;;;;;;5042540;28;20017;-48
2023/01/18 02:34:12;;;;;;;1.65;1.00;;;11.40;99.90;;;;;;5053863;28;20063;-50
2023/01/18 02:36:45;;;;;;;1.95;1.10;;;11.50;99.90;;;;;;5051061;28;20033;-49
2023/01/18 02:39:30;;;;;;;2.55;1.30;;;11.50;99.90;;;;;;5048532;28;21130;-49
2023/01/18 02:47:31;;;;;;;1.88;1.10;;;11.70;99.90;;;;;;5050682;28;20098;-49
2023/01/18 02:49:57;;;;;;;1.08;0.77;;;11.70;99.90;;;;;;5046698;28;20388;-49
2023/01/18 02:52:42;;;;;;;0.55;0.47;;;11.60;99.90;;;;;;5053507;28;20025;-49
2023/01/18 02:55:48;;;;;;;1.65;0.55;;;11.70;99.90;;;;;;5048292;28;20064;-48
2023/01/18 02:58:23;;;;;;;1.17;0.60;;;11.90;99.90;;;;;;5043689;28;20043;-49
2023/01/18 03:00:56;;;;;;;0.40;0.30;;;12.10;99.90;;;;;;5053031;28;20058;-49
2023/01/18 03:03:23;;;;;;;0.50;0.35;;;12.20;99.90;;;;;;5046724;28;20174;-49
2023/01/18 03:05:52;;;;;;;1.02;0.75;;;12.20;99.90;;;;;;5042287;28;20029;-49
2023/01/18 03:08:31;;;;;;;0.30;0.30;;;12.30;99.90;;;;;;5047499;28;20052;-49
2023/01/18 03:11:05;;;;;;;0.75;0.40;;;12.30;99.90;;;;;;5048257;28;20154;-50
2023/01/18 03:13:56;;;;;;;1.95;0.32;;;12.20;99.90;;;;;;5045548;28;20032;-48
2023/01/18 03:16:38;;;;;;;0.38;0.22;;;12.20;99.90;;;;;;5010391;28;20199;-49
2023/01/18 03:21:56;;;;;;;0.73;0.38;;;12.30;99.90;;;;;;5012798;28;20046;-49
2023/01/18 03:24:22;;;;;;;1.75;0.55;;;;;;;;;;5017938;28;20048;-49
2023/01/18 03:26:53;;;;;;;1.70;0.63;;;12.40;99.90;;;;;;5011636;28;20041;-49
2023/01/18 03:35:02;;;;;;;0.88;0.47;;;12.20;99.90;;;;;;5014394;28;20477;-49
2023/01/18 03:37:43;;;;;;;0.93;0.30;;;12.20;99.90;;;;;;5013589;28;20076;-49
2023/01/18 03:40:20;;;;;;;0.80;0.30;;;12.20;99.90;;;;;;5016180;28;20181;-50
2023/01/18 03:43:07;;;;;;;0.52;0.45;;;12.10;99.90;;;;;;5017328;28;20092;-49
2023/01/18 03:45:40;;;;;;;1.85;0.30;;;12.10;99.90;;;;;;5019892;28;20088;-48
2023/01/18 03:48:07;;;;;;;1.00;0.40;;;12.10;99.90;;;;;;5018982;28;20421;-49
2023/01/18 03:50:49;;;;;;;0.10;0.10;;;12.10;99.90;;;;;;5017661;28;20033;-50
2023/01/18 03:53:27;;;;;;;0.10;0.10;;;12.10;99.90;;;;;;5000320;28;20021;-49
2023/01/18 03:56:00;;;;;;;0.30;0.30;;;12.10;99.90;;;;;;5047669;28;20076;-49
2023/01/18 03:58:34;;;;;;;0.15;0.10;;;12.10;99.90;;;;;;5047873;28;20090;-48
2023/01/18 04:01:02;;;;;;;0.50;0.20;;;12.10;99.90;;;;;;5049548;28;20048;-49
2023/01/18 04:03:29;;;;;;;3.15;1.50;;;;;;;;;;5048491;28;20063;-48
2023/01/18 04:05:56;;;;;;;0.43;0.20;;;;;;;;;;5043500;28;20022;-49
2023/01/18 04:08:22;;;;;;;0.20;0.20;;;;;;;;;;5047333;28;20026;-49
2023/01/18 04:10:48;;;;;;;1.63;0.30;;;;;;;;;;5051507;28;20091;-49
2023/01/18 04:13:14;;;;;;;0.10;0.10;;;;;;;;;;5046567;28;20039;-49
2023/01/18 04:15:40;;;;;;;1.35;0.25;;;12.20;99.90;;;;;;5044517;28;20021;-48
2023/01/18 04:18:05;;;;;;;0.88;0.40;;;12.10;99.90;;;;;;5049267;28;20032;-48
2023/01/18 04:20:31;;;;;;;13.60;5.85;;;12.10;99.90;;;;;;5040253;28;20083;-49
2023/01/18 04:22:57;;;;;;;5.70;2.20;;;12.20;99.90;;;;;;5044174;28;20028;-49
2023/01/18 04:25:23;;;;;;;3.63;1.70;;;12.30;99.90;;;;;;5044641;28;20115;-50
2023/01/18 04:27:48;;;;;;;8.07;3.20;;;12.40;99.90;;;;;;5047203;28;20115;-49
2023/01/18 04:30:15;;;;;;;1.65;0.65;;;12.50;99.90;;;;;;5046115;28;20090;-49
2023/01/18 04:32:41;;;;;;;4.57;2.13;;;12.50;99.90;;;;;;5047825;28;20033;-48
2023/01/18 04:35:08;;;;;;;0.43;0.30;;;12.60;99.90;;;;;;5043091;28;20481;-49
2023/01/18 04:37:33;;;;;;;0.10;0.10;;;12.60;99.90;;;;;;5047307;28;20477;-49
2023/01/18 04:40:00;;;;;;;0.10;0.10;;;12.30;99.90;;;;;;5046517;28;20049;-48
2023/01/18 04:42:25;;;;;;;0.30;0.13;;;12.40;99.90;;;;;;5029407;28;20040;-48
2023/01/18 04:44:52;;;;;;;1.42;0.30;;;12.30;99.90;;;;;;5043587;28;20381;-49
2023/01/18 04:47:18;;;;;;;0.20;0.20;;;12.30;99.90;;;;;;5046973;28;20389;-49
2023/01/18 04:49:44;;;;;;;0.40;0.20;;;12.20;99.90;;;;;;5047806;28;20032;-49
2023/01/18 04:52:09;;;;;;;1.40;0.20;;;12.20;99.90;;;;;;5047915;28;20049;-50
2023/01/18 04:54:35;;;;;;;0.10;0.10;;;12.30;99.90;;;;;;5049313;28;20562;-48
2023/01/18 04:57:01;;;;;;;0.10;0.10;;;12.30;99.90;;;;;;5036084;28;20033;-48
2023/01/18 04:59:27;;;;;;;0.10;0.10;;;12.20;99.90;;;;;;5045461;28;20587;-48
2023/01/18 05:01:53;;;;;;;0.10;0.10;;;12.20;99.90;;;;;;5048859;28;20507;-48
2023/01/18 05:04:19;;;;;;;0.08;0.08;;;12.30;99.90;;;;;;5046539;28;20061;-49
2023/01/18 05:06:49;;;;;;;0.25;0.05;;;12.20;99.90;;;;;;5028751;28;20052;-49
2023/01/18 05:09:15;;;;;;;0.20;0.20;;;12.30;99.90;;;;;;5045361;28;20291;-48
2023/01/18 05:11:42;;;;;;;4.55;1.77;;;;;;;;;;5050051;28;20040;-49
2023/01/18 05:14:08;;;;;;;0.60;0.52;;;12.30;99.90;;;;;;5052150;28;20420;-48
2023/01/18 05:16:34;;;;;;;0.52;0.50;;;12.30;99.90;;;;;;5050982;28;20033;-49
2023/01/18 05:19:00;;;;;;;0.40;0.40;;;12.30;99.90;;;;;;5050226;28;20075;-49
2023/01/18 05:21:27;;;;;;;0.50;0.50;;;;;;;;;;5054901;28;20139;-48
2023/01/18 05:23:53;;;;;;;0.63;0.40;;;12.60;99.90;;;;;;5049589;28;20024;-49
2023/01/18 05:26:21;;;;;;;2.05;0.98;;;12.00;99.90;;;;;;5051816;28;20484;-49
2023/01/18 05:28:49;;;;;;;3.97;1.60;;;12.20;99.90;;;;;;5050441;28;20029;-51
2023/01/18 05:31:16;;;;;;;4.70;1.70;;;12.00;99.90;;;;;;5048507;28;20428;-48
2023/01/18 05:33:42;;;;;;;4.15;2.10;;;11.80;99.90;;;;;;5047366;28;20033;-49
2023/01/18 05:36:08;;;;;;;2.25;1.30;;;11.80;99.90;;;;;;5052463;28;20086;-48
2023/01/18 05:38:34;;;;;;;8.18;3.60;;;11.60;99.90;;;;;;5038277;28;20037;-48
2023/01/18 05:41:00;;;;;;;10.00;4.65;;;11.60;99.90;;;;;;5052004;28;20560;-50
2023/01/18 05:43:27;;;;;;;5.90;2.63;;;11.60;99.90;;;;;;5051960;28;20036;-49
2023/01/18 05:45:52;;;;;;;6.60;3.00;;;11.40;99.90;;;;;;5047648;28;20025;-49
2023/01/18 05:48:19;;;;;;;3.08;1.80;;;11.30;99.90;;;;;;5049949;28;20036;-49
2023/01/18 05:50:46;;;;;;;3.33;1.88;;;;;;;;;;5048085;28;20040;-50
2023/01/18 05:53:13;;;;;;;2.25;1.42;;;;;;;;;;5046932;28;20477;-50
2023/01/18 05:55:39;;;;;;;1.63;0.80;;;;;;;;;;5046846;28;20416;-49
2023/01/18 05:58:06;;;;;;;2.92;1.35;;;;;;;;;;5050812;28;20753;-50
2023/01/18 06:00:33;;;;;;;4.45;2.75;;;;;;;;;;5052152;28;20037;-49
2023/01/18 06:02:59;;;;;;;3.85;2.40;;;;;;;;;;5051069;28;20029;-49
2023/01/18 06:05:26;;;;;;;3.25;1.63;;;;;;;;;;5050137;28;20029;-49
2023/01/18 06:07:52;;;;;;;2.70;1.85;;;;;;;;;;5048154;28;20034;-49
2023/01/18 06:10:18;;;;;;;2.85;1.70;;;;;;;;;;5053005;28;20024;-50
2023/01/18 06:12:44;;;;;;;1.25;1.02;;;;;;;;;;5032980;28;20045;-50
2023/01/18 06:15:11;;;;;;;2.05;1.30;;;;;;;;;;5049983;28;20392;-49
2023/01/18 06:17:38;;;;;;;2.78;1.70;;;;;;;;;;5053901;28;20107;-48
2023/01/18 06:20:05;;;;;;;1.63;0.80;;;;;;;;;;5048611;28;20446;-50
2023/01/18 06:22:31;;;;;;;1.92;1.20;;;;;;;;;;5050077;28;20103;-50
2023/01/18 06:24:57;;;;;;;3.85;1.15;;;;;;;;;;5051819;28;20036;-49
2023/01/18 06:27:23;;;;;;;1.75;1.20;;;;;;;;;;5052800;28;20093;-48
2023/01/18 06:29:49;;;;;;;1.52;0.98;;;;;;;;;;5053684;28;20357;-49
2023/01/18 06:32:15;;;;;;;1.85;1.05;;;;;;;;;;5045890;28;20078;-47
2023/01/18 06:34:41;;;;;;;2.42;1.30;;;11.70;99.90;;;;;;5050897;28;20082;-49
2023/01/18 06:37:07;;;;;;;1.35;0.90;;;12.30;99.90;;;;;;5044368;28;20112;-48
2023/01/18 06:39:34;;;;;;;1.88;1.10;;;12.00;99.90;;;;;;5051739;28;20151;-49
2023/01/18 06:42:00;;;;;;;3.28;2.10;;;11.80;99.90;;;;;;5044627;28;20370;-50
2023/01/18 06:44:25;;;;;;;4.05;1.90;;;12.00;99.90;;;;;;5045281;28;20036;-49
2023/01/18 06:46:51;;;;;;;4.97;3.53;;;12.00;99.90;;;;;;5047424;28;20033;-50
2023/01/18 06:49:17;;;;;;;8.50;5.70;;;13.10;99.90;;;;;;5051642;28;20041;-47
2023/01/18 06:51:43;;;;;;;2.22;1.70;;;;;;;;;;5052659;28;20029;-49
2023/01/18 06:54:09;;;;;;;1.40;1.30;;;16.00;99.90;;;;;;5049675;28;20044;-49
2023/01/18 06:56:35;;;;;;;1.70;1.48;;;16.70;99.90;;;;;;5031829;28;20034;-48
2023/01/18 06:59:01;;;;;;;2.47;1.33;;;16.30;99.90;;;;;;5052658;28;20393;-49
2023/01/18 07:01:27;;;;;;;3.30;2.70;;;17.20;99.90;;;;;;5040602;28;20052;-48
2023/01/18 07:03:52;;;;;;;3.88;3.17;;;17.50;99.90;;;;;;5040994;28;20053;-49
2023/01/18 07:06:19;;;;;;;3.75;3.10;;;;;;;;;;5041946;28;20519;-49
2023/01/18 07:08:45;;;;;;;2.50;1.80;;;17.00;99.90;;;;;;5046446;28;20028;-48
2023/01/18 07:11:12;;;;;;;1.65;1.42;;;15.50;99.90;;;;;;5017923;28;20136;-50
2023/01/18 07:13:39;;;;;;;1.23;0.98;;;16.40;99.90;;;;;;5017663;28;20046;-48
2023/01/18 07:16:06;;;;;;;1.65;1.20;;;16.40;99.90;;;;;;5016635;28;20049;-50
2023/01/18 07:18:32;;;;;;;1.40;1.30;;;17.10;99.90;;;;;;5035942;28;20086;-49
2023/01/18 07:21:00;;;;;;;1.83;1.30;;;17.60;99.90;;;;;;5034523;28;20049;-48
2023/01/18 07:23:27;;;;;;;1.08;0.73;;;18.40;99.90;;;;;;5033300;28;20065;-49
2023/01/18 07:26:04;;;;;;;1.55;1.30;;;17.40;99.90;;;;;;5037102;28;20464;-51
2023/01/18 07:28:31;;;;;;;1.48;1.20;;;;;;;;;;5030873;28;20029;-48
2023/01/18 07:30:57;;;;;;;1.90;1.80;;;;;;;;;;5032791;28;20053;-48
2023/01/18 07:33:23;;;;;;;1.60;1.50;;;21.00;99.90;;;;;;5032745;28;20029;-45
2023/01/18 07:35:51;;;;;;;1.42;1.33;;;;;;;;;;5035750;28;20052;-47
2023/01/18 07:38:17;;;;;;;1.30;1.13;;;;;;;;;;5017079;28;20029;-47
2023/01/18 07:40:43;;;;;;;2.75;2.13;;;;;;;;;;5014992;28;20141;-45
2023/01/18 07:43:11;;;;;;;1.92;1.55;;;20.60;99.90;;;;;;5037552;28;20054;-44
2023/01/18 07:45:37;;;;;;;1.70;1.20;;;20.30;99.90;;;;;;5037120;28;20111;-46
2023/01/18 07:48:04;;;;;;;1.38;1.00;;;;;;;;;;5039055;28;20171;-48
2023/01/18 07:50:30;;;;;;;1.70;1.55;;;17.80;99.90;;;;;;5033361;28;20028;-46
2023/01/18 07:52:55;;;;;;;2.05;1.40;;;18.20;99.90;;;;;;5044911;28;20038;-46
2023/01/18 07:55:21;;;;;;;1.10;1.00;;;18.90;99.90;;;;;;5044601;28;20132;-45
2023/01/18 07:57:47;;;;;;;1.35;0.90;;;19.10;99.90;;;;;;5062395;28;20033;-47
2023/01/18 08:00:13;;;;;;;1.42;1.00;;;;;;;;;;5029950;28;20049;-48
2023/01/18 08:02:40;;;;;;;0.93;0.68;;;16.50;99.90;;;;;;5047146;28;20496;-48
2023/01/18 08:05:09;;;;;;;1.08;0.90;;;;;;;;;;5038421;28;20029;-46
2023/01/18 08:07:35;;;;;;;2.00;0.90;;;14.20;99.90;;;;;;5046936;28;20362;-48
2023/01/18 08:10:01;;;;;;;2.75;1.50;;;13.30;99.90;;;;;;5046710;28;20041;-48
2023/01/18 08:12:27;;;;;;;2.35;1.55;;;13.10;99.90;;;;;;5048812;28;20204;-47
2023/01/18 08:14:53;;;;;;;2.15;1.60;;;12.80;99.90;;;;;;5048303;28;20073;-47
2023/01/18 08:17:19;;;;;;;1.80;1.25;;;12.50;99.90;;;;;;5049071;28;20028;-47
2023/01/18 08:19:45;;;;;;;1.83;1.38;;;;;;;;;;5049209;28;20043;-45
2023/01/18 08:22:10;;;;;;;5.28;2.67;;;12.10;99.90;;;;;;5049446;28;20029;-45
2023/01/18 08:24:36;;;;;;;1.95;1.45;;;12.00;99.90;;;;;;5050947;28;20128;-47
2023/01/18 08:27:02;;;;;;;4.22;3.05;;;12.00;99.90;;;;;;5017388;28;20041;-47
2023/01/18 08:29:28;;;;;;;3.05;2.25;;;12.10;99.90;;;;;;5032040;28;20099;-48
2023/01/18 08:31:53;;;;;;;10.80;8.07;;;12.30;99.90;;;;;;5029737;28;20045;-45
2023/01/18 08:34:20;;;;;;;3.03;2.33;;;12.30;99.90;;;;;;5046608;28;20488;-45
2023/01/18 08:36:46;;;;;;;2.28;1.83;;;12.40;99.90;;;;;;5049120;28;20132;-48
2023/01/18 08:39:13;;;;;;;6.57;3.50;;;12.50;99.90;;;;;;5049311;28;20067;-47
2023/01/18 08:41:40;;;;;;;7.18;4.22;;;12.50;99.90;;;;;;5049849;28;20136;-45
2023/01/18 08:44:07;;;;;;;3.58;2.03;;;12.50;99.90;;;;;;5033029;28;20136;-45
2023/01/18 08:46:32;;;;;;;2.80;2.20;;;12.60;99.90;;;;;;5051002;28;20075;-48
2023/01/18 08:48:58;;;;;;;3.50;2.30;;;12.70;99.90;;;;;;5050144;28;20037;-48
2023/01/18 08:51:24;;;;;;;15.13;9.48;;;12.60;99.90;;;;;;5047742;28;20045;-45
2023/01/18 08:53:53;;;;;;;13.32;8.85;;;12.60;99.90;;;;;;5048969;28;20024;-46
2023/01/18 08:56:20;;;;;;;2.80;1.88;;;12.60;99.90;;;;;;5048405;28;20072;-48
2023/01/18 08:58:46;;;;;;;3.35;1.52;;;12.60;99.90;;;;;;5043652;28;20036;-46
2023/01/18 09:01:11;;;;;;;2.47;1.55;;;12.60;99.90;;;;;;5051426;28;20102;-46
2023/01/18 09:03:37;;;;;;;6.45;4.95;;;12.60;99.90;;;;;;5055597;28;20025;-46
2023/01/18 09:06:07;;;;;;;24.38;20.70;;;12.60;99.90;;;;;;5045330;28;20029;-48
2023/01/18 09:08:32;;;;;;;14.25;10.45;;;12.70;99.90;;;;;;5050076;28;20614;-47
2023/01/18 09:11:04;;;;;;;5.60;4.97;;;12.70;99.90;;;;;;5054046;28;20119;-45
2023/01/18 09:13:30;;;;;;;9.93;7.10;;;12.50;99.90;;;;;;5050540;28;20044;-46
2023/01/18 09:16:06;;;;;;;4.03;2.40;;;12.40;99.90;;;;;;5049591;28;20278;-46
2023/01/18 09:18:33;;;;;;;5.72;3.00;;;;;;;;;;4982386;28;20107;-46
2023/01/18 09:21:03;;;;;;;2.75;2.22;;;11.20;99.90;;;;;;5032511;28;20050;-46
2023/01/18 09:23:29;;;;;;;9.10;5.78;;;11.10;99.90;;;;;;5032667;28;20124;-46
2023/01/18 09:26:15;;;;;;;32.58;15.43;;;11.50;99.90;;;;;;5033056;28;20166;-47
2023/01/18 09:28:47;;;;;;;21.25;9.57;;;11.90;99.90;;;;;;5029410;28;20084;-46
2023/01/18 09:31:13;;;;;;;27.90;11.55;;;12.20;99.90;;;;;;5025200;28;20033;-46
2023/01/18 09:33:41;;;;;;;11.60;7.50;;;12.40;99.90;;;;;;5032271;28;20594;-46
2023/01/18 09:36:09;;;;;;;3.92;2.70;;;12.00;99.90;;;;;;5032345;28;20034;-46
2023/01/18 09:38:36;;;;;;;2.92;2.38;;;11.50;99.90;;;;;;5031985;28;20041;-46
2023/01/18 09:41:06;;;;;;;4.47;4.07;;;11.20;99.90;;;;;;5032258;28;20048;-48
2023/01/18 09:43:39;;;;;;;3.92;3.53;;;11.10;99.90;;;;;;5032563;28;20037;-46
2023/01/18 09:46:20;;;;;;;5.15;3.90;;;11.10;99.90;;;;;;5032117;28;20038;-47
2023/01/18 09:48:58;;;;;;;7.28;5.63;;;11.60;99.90;;;;;;5035804;28;20041;-46
2023/01/18 09:51:41;;;;;;;42.95;20.45;;;11.60;99.90;;;;;;5052246;28;20127;-48
2023/01/18 09:54:13;;;;;;;32.03;15.77;;;11.70;99.90;;;;;;5053094;28;20033;-46
2023/01/18 09:56:48;;;;;;;167.88;64.25;;;11.90;99.90;;;;;;5049042;28;20523;-46
2023/01/18 09:59:33;;;;;;;144.02;56.95;;;12.20;99.90;;;;;;5049936;28;20124;-48
2023/01/18 10:02:14;;;;;;;107.10;45.28;;;12.50;99.90;;;;;;5045452;28;20064;-46
2023/01/18 10:04:43;;;;;;;116.57;48.40;;;12.80;99.90;;;;;;5046298;28;20087;-47
2023/01/18 10:07:15;;;;;;;130.77;53.05;;;12.90;99.90;;;;;;5052979;28;20039;-47
2023/01/18 10:09:49;;;;;;;91.43;39.40;;;13.00;99.90;;;;;;5050560;28;20132;-46
2023/01/18 10:12:39;;;;;;;51.22;27.13;;;13.20;99.90;;;;;;5039935;28;20021;-46
2023/01/18 10:15:25;;;;;;;13.48;7.88;;;12.90;99.90;;;;;;5046340;28;20473;-46
2023/01/18 10:17:55;;;;;;;8.40;5.85;;;12.70;99.90;;;;;;5045191;28;20091;-46
2023/01/18 10:20:24;;;;;;;9.90;7.05;;;12.60;99.90;;;;;;5052661;28;20045;-46
2023/01/18 10:23:26;;;;;;;7.72;6.68;;;12.70;99.90;;;;;;5049768;28;20568;-48
2023/01/18 10:26:30;;;;;;;6.13;4.45;;;13.10;99.90;;;;;;5015849;28;20073;-46
2023/01/18 10:29:02;;;;;;;4.63;3.58;;;13.40;99.90;;;;;;4956798;28;20113;-47
2023/01/18 10:31:28;;;;;;;4.22;3.38;;;13.60;99.90;;;;;;4980956;28;20038;-45
2023/01/18 10:33:57;;;;;;;4.03;2.92;;;14.10;99.90;;;;;;4975745;28;20058;-46
2023/01/18 10:36:37;;;;;;;4.75;4.13;;;14.40;99.90;;;;;;4982527;28;20042;-46
2023/01/18 10:39:08;;;;;;;3.35;2.60;;;;;;;;;;4974610;28;20123;-46
2023/01/18 10:41:37;;;;;;;2.72;2.15;;;15.80;99.90;;;;;;4979736;28;20070;-46
2023/01/18 10:44:03;;;;;;;2.95;2.65;;;16.30;99.90;;;;;;4979906;28;20125;-46
2023/01/18 10:46:29;;;;;;;3.40;2.80;;;16.90;99.90;;;;;;4960269;28;20138;-45
2023/01/18 10:48:58;;;;;;;8.93;7.57;;;17.80;99.90;;;;;;4974864;28;20041;-46
2023/01/18 10:51:30;;;;;;;9.80;6.53;;;;;;;;;;4971531;28;20030;-47
2023/01/18 10:53:56;;;;;;;4.93;4.53;;;18.60;99.90;;;;;;4971865;28;20042;-46
2023/01/18 10:56:23;;;;;;;6.03;5.30;;;;;;;;;;4968539;28;20491;-47
2023/01/18 10:58:59;;;;;;;5.75;5.25;;;19.20;99.90;;;;;;4979388;28;20041;-48
2023/01/18 11:01:26;;;;;;;5.57;5.00;;;;;;;;;;5013394;28;20042;-47
2023/01/18 11:03:53;;;;;;;5.18;4.68;;;;;;;;;;5040249;28;20034;-47
2023/01/18 11:06:20;;;;;;;6.80;5.28;;;;;;;;;;5041528;28;20029;-48
2023/01/18 11:08:48;;;;;;;7.22;6.50;;;22.70;99.90;;;;;;5039343;28;20033;-44
2023/01/18 11:14:25;;;;;;;12.95;10.00;;;;;;;;;;5045256;28;20400;-48
2023/01/18 11:16:58;;;;;;;9.32;8.32;;;;;;;;;;5037437;28;20127;-47
2023/01/18 11:19:25;;;;;;;10.07;8.75;;;;;;;;;;5048159;28;20021;-47
2023/01/18 11:21:52;;;;;;;9.23;7.95;;;23.40;99.90;;;;;;5052380;28;20479;-44
2023/01/18 11:24:29;;;;;;;12.82;11.10;;;;;;;;;;5051146;28;20095;-47
2023/01/18 11:27:00;;;;;;;15.70;12.13;;;;;;;;;;5035453;28;20048;-47
2023/01/18 11:29:32;;;;;;;16.15;12.73;;;23.70;97.90;;;;;;5043401;28;20045;-47
2023/01/18 11:32:05;;;;;;;15.10;12.15;;;23.40;98.50;;;;;;5051709;28;20033;-47
2023/01/18 11:34:41;;;;;;;14.00;12.50;;;;;;;;;;5046295;28;20112;-47
2023/01/18 11:37:26;;;;;;;15.73;11.20;;;;;;;;;;5048344;28;20428;-47
2023/01/18 11:39:52;;;;;;;11.73;9.88;;;22.30;99.90;;;;;;5050099;28;20100;-47
2023/01/18 11:42:29;;;;;;;13.10;9.68;;;20.90;98.00;;;;;;5050007;28;20128;-47
2023/01/18 11:44:54;;;;;;;11.85;8.70;;;20.10;99.30;;;;;;5047801;28;20120;-44
2023/01/18 11:47:47;;;;;;;11.38;8.70;;;18.90;99.90;;;;;;5050233;28;20111;-43
2023/01/18 11:50:44;;;;;;;9.02;7.38;;;18.70;99.90;;;;;;5013385;28;20603;-46
2023/01/18 11:53:22;;;;;;;7.43;6.18;;;18.60;99.90;;;;;;5026931;28;20414;-45
2023/01/18 11:56:08;;;;;;;5.82;4.90;;;18.50;99.90;;;;;;5028573;28;20072;-45
2023/01/18 11:58:35;;;;;;;6.18;5.28;;;17.90;99.90;;;;;;5012214;28;20037;-45
2023/01/18 12:01:23;;;;;;;7.43;5.28;;;17.60;99.90;;;;;;4989210;28;20235;-45
2023/01/18 12:04:05;;;;;;;6.47;4.53;;;17.60;99.90;;;;;;4988007;28;20040;-49
2023/01/18 12:06:37;;;;;;;9.35;5.47;;;17.40;99.90;;;;;;4973979;28;20037;-47
2023/01/18 12:09:22;;;;;;;10.48;7.30;;;17.10;99.90;;;;;;4985909;28;21069;-46
2023/01/18 12:12:12;;;;;;;10.70;8.27;;;17.40;99.90;;;;;;4988343;28;20494;-50
2023/01/18 12:14:47;;;;;;;7.75;6.65;;;17.40;99.90;;;;;;4988105;28;20392;-48
2023/01/18 12:17:32;;;;;;;6.68;5.40;;;17.50;99.90;;;;;;4988521;28;20034;-48
2023/01/18 12:20:32;;;;;;;6.38;5.10;;;17.30;99.90;;;;;;4986609;28;20038;-47
2023/01/18 12:23:16;;;;;;;6.72;5.80;;;17.00;99.90;;;;;;4986045;28;20073;-48
2023/01/18 12:25:56;;;;;;;6.10;4.10;;;16.80;99.90;;;;;;4984707;28;20034;-49
2023/01/18 12:28:49;;;;;;;6.47;4.60;;;16.40;99.90;;;;;;5007703;28;20076;-44
2023/01/18 12:31:24;;;;;;;5.47;4.70;;;16.50;99.90;;;;;;5014544;28;20098;-44
2023/01/18 12:34:20;;;;;;;6.32;4.35;;;16.80;99.90;;;;;;5041632;28;20040;-49
2023/01/18 12:36:58;;;;;;;5.63;4.55;;;16.80;99.90;;;;;;5050347;28;20025;-49
2023/01/18 12:39:44;;;;;;;6.85;5.40;;;16.90;99.90;;;;;;5046366;28;20381;-48
2023/01/18 12:42:37;;;;;;;11.88;8.85;;;16.70;99.90;;;;;;5048522;28;20098;-49
2023/01/18 12:45:13;;;;;;;15.50;10.68;;;16.40;99.90;;;;;;5047403;28;20025;-50
2023/01/18 12:47:46;;;;;;;7.75;4.05;;;16.60;99.90;;;;;;5051476;28;20029;-49
2023/01/18 12:50:32;;;;;;;9.40;5.95;;;16.40;99.90;;;;;;5046180;28;20514;-49
2023/01/18 12:53:44;;;;;;;7.68;5.90;;;16.20;99.90;;;;;;5046015;28;20034;-49
2023/01/18 12:56:31;;;;;;;7.88;5.15;;;16.10;99.90;;;;;;5026942;28;20386;-49
2023/01/18 12:59:02;;;;;;;6.35;4.38;;;16.10;99.90;;;;;;5043409;28;20064;-49
2023/01/18 13:01:33;;;;;;;6.13;4.40;;;15.80;99.90;;;;;;5048176;28;20043;-49
2023/01/18 13:04:10;;;;;;;6.32;4.32;;;15.60;99.90;;;;;;5045332;28;20037;-49
2023/01/18 13:06:38;;;;;;;5.75;4.00;;;15.50;99.90;;;;;;5048375;28;20107;-49
2023/01/18 13:09:11;;;;;;;5.25;3.55;;;15.50;99.90;;;;;;5044261;28;20029;-49
2023/01/18 13:11:40;;;;;;;5.63;3.80;;;15.50;99.90;;;;;;5048471;28;20086;-49
2023/01/18 13:14:32;;;;;;;5.85;4.22;;;15.70;99.90;;;;;;5043207;28;20028;-49
2023/01/18 13:17:29;;;;;;;7.30;5.10;;;15.80;99.90;;;;;;5048956;28;20037;-50
2023/01/18 13:20:01;;;;;;;14.38;10.65;;;16.00;99.90;;;;;;5046122;28;20029;-50
2023/01/18 13:22:59;;;;;;;10.85;7.40;;;15.80;99.90;;;;;;5043403;28;20029;-50
2023/01/18 13:25:52;;;;;;;13.88;9.93;;;15.80;99.90;;;;;;5038671;28;20029;-50
2023/01/18 13:28:23;;;;;;;11.45;9.80;;;15.60;99.90;;;;;;5048642;28;20044;-49
2023/01/18 13:30:59;;;;;;;10.80;8.93;;;15.50;99.90;;;;;;5053669;28;20131;-49
2023/01/18 13:33:29;;;;;;;6.10;4.88;;;15.50;99.90;;;;;;5053190;28;20440;-50
2023/01/18 13:36:09;;;;;;;6.32;4.65;;;15.50;99.90;;;;;;5053484;28;20029;-49
2023/01/18 13:38:57;;;;;;;6.50;4.95;;;15.30;99.90;;;;;;5052557;28;20045;-49
2023/01/18 13:41:25;;;;;;;5.15;3.25;;;15.10;99.90;;;;;;5052916;28;20048;-50
2023/01/18 13:43:55;;;;;;;3.35;2.55;;;15.20;99.90;;;;;;5035216;28;20041;-50
2023/01/18 13:46:23;;;;;;;5.53;3.58;;;15.10;99.90;;;;;;5053777;28;20033;-49
2023/01/18 13:48:56;;;;;;;4.32;2.70;;;15.00;99.90;;;;;;5053773;28;20036;-49
2023/01/18 13:51:38;;;;;;;5.75;2.55;;;15.10;99.90;;;;;;5051537;28;20090;-51
2023/01/18 13:54:05;;;;;;;3.75;2.78;;;15.00;99.90;;;;;;5054105;28;20048;-50
2023/01/18 13:56:32;;;;;;;5.70;3.60;;;15.00;99.90;;;;;;5051841;28;20370;-49
2023/01/18 13:59:00;;;;;;;7.15;3.35;;;15.00;99.90;;;;;;5054468;28;20043;-49